Terminal Aerodrome Forecast
Issued by NWS

Home | Current Version | Previous Version | Text Only | Print | Product List | Glossary On
Versions: 1 2 3 4 5 6 7 8 9 10 11
000
FTUS42 KMLB 281100
TAFSFB
TAF
KSFB 281123Z 2812/2912 00000KT 3/4SM BR OVC003
      TEMPO 2812/2813 1/4SM FG VV002
     FM281500 20004KT 5SM BR BKN008 BKN020
     FM281700 21006KT P6SM BKN040
     FM290000 19003KT P6SM BKN040
     FM290700 00000KT 2SM BR OVC004
      TEMPO 2908/2912 1/2SM FG VV002=

USA.gov is the U.S. government's official web portal to all federal, state and local government web resources and services.